sensor_id;sensor_type;location;lat;lon;timestamp;temperature;humidity
9209;DHT22;4639;48.862;9.188;2023-04-20T00:01:39;6.10;99.90
9209;DHT22;4639;48.862;9.188;2023-04-20T00:04:05;6.00;99.90
9209;DHT22;4639;48.862;9.188;2023-04-20T00:06:31;6.10;99.90
9209;DHT22;4639;48.862;9.188;2023-04-20T00:08:58;6.10;99.90
9209;DHT22;4639;48.862;9.188;2023-04-20T00:11:26;6.00;99.90
9209;DHT22;4639;48.862;9.188;2023-04-20T00:13:52;5.90;99.90
9209;DHT22;4639;48.862;9.188;2023-04-20T00:16:17;6.00;99.90
9209;DHT22;4639;48.862;9.188;2023-04-20T00:18:45;6.00;99.90
9209;DHT22;4639;48.862;9.188;2023-04-20T00:21:10;6.00;99.90
9209;DHT22;4639;48.862;9.188;2023-04-20T00:23:36;5.90;99.90
9209;DHT22;4639;48.862;9.188;2023-04-20T00:26:02;5.90;99.90
9209;DHT22;4639;48.862;9.188;2023-04-20T00:28:28;5.90;99.90
9209;DHT22;4639;48.862;9.188;2023-04-20T00:30:54;5.80;99.90
9209;DHT22;4639;48.862;9.188;2023-04-20T00:33:20;5.80;99.90
9209;DHT22;4639;48.862;9.188;2023-04-20T00:35:45;5.80;99.90
9209;DHT22;4639;48.862;9.188;2023-04-20T00:38:11;5.90;99.90
9209;DHT22;4639;48.862;9.188;2023-04-20T00:40:36;5.80;99.90
9209;DHT22;4639;48.862;9.188;2023-04-20T00:43:09;5.80;99.90
9209;DHT22;4639;48.862;9.188;2023-04-20T00:45:35;5.70;99.90
9209;DHT22;4639;48.862;9.188;2023-04-20T00:48:01;5.70;99.90
9209;DHT22;4639;48.862;9.188;2023-04-20T00:50:26;5.60;99.90
9209;DHT22;4639;48.862;9.188;2023-04-20T00:52:52;5.60;99.90
9209;DHT22;4639;48.862;9.188;2023-04-20T00:55:18;5.60;99.90
9209;DHT22;4639;48.862;9.188;2023-04-20T00:57:44;5.70;99.90
9209;DHT22;4639;48.862;9.188;2023-04-20T01:00:10;5.70;99.90
9209;DHT22;4639;48.862;9.188;2023-04-20T01:02:36;5.70;99.90
9209;DHT22;4639;48.862;9.188;2023-04-20T01:05:01;5.70;99.90
9209;DHT22;4639;48.862;9.188;2023-04-20T01:07:28;5.80;99.90
9209;DHT22;4639;48.862;9.188;2023-04-20T01:09:54;5.70;99.90
9209;DHT22;4639;48.862;9.188;2023-04-20T01:12:20;5.70;99.90
9209;DHT22;4639;48.862;9.188;2023-04-20T01:14:46;5.60;99.90
9209;DHT22;4639;48.862;9.188;2023-04-20T01:17:11;5.60;99.90
9209;DHT22;4639;48.862;9.188;2023-04-20T01:19:39;5.60;99.90
9209;DHT22;4639;48.862;9.188;2023-04-20T01:22:06;5.60;99.90
9209;DHT22;4639;48.862;9.188;2023-04-20T01:24:32;5.50;99.90
9209;DHT22;4639;48.862;9.188;2023-04-20T01:26:58;5.50;99.90
9209;DHT22;4639;48.862;9.188;2023-04-20T01:29:25;5.40;99.90
9209;DHT22;4639;48.862;9.188;2023-04-20T01:31:51;5.40;99.90
9209;DHT22;4639;48.862;9.188;2023-04-20T01:34:17;5.40;99.90
9209;DHT22;4639;48.862;9.188;2023-04-20T01:36:43;5.30;99.90
9209;DHT22;4639;48.862;9.188;2023-04-20T01:39:09;5.30;99.90
9209;DHT22;4639;48.862;9.188;2023-04-20T01:41:35;5.30;99.90
9209;DHT22;4639;48.862;9.188;2023-04-20T01:44:01;5.20;99.90
9209;DHT22;4639;48.862;9.188;2023-04-20T01:46:27;5.30;99.90
9209;DHT22;4639;48.862;9.188;2023-04-20T01:48:53;5.20;99.90
9209;DHT22;4639;48.862;9.188;2023-04-20T01:51:18;5.10;99.90
9209;DHT22;4639;48.862;9.188;2023-04-20T01:53:44;5.10;99.90
9209;DHT22;4639;48.862;9.188;2023-04-20T01:56:10;5.10;99.90
9209;DHT22;4639;48.862;9.188;2023-04-20T01:58:35;5.10;99.90
9209;DHT22;4639;48.862;9.188;2023-04-20T02:01:01;5.10;99.90
9209;DHT22;4639;48.862;9.188;2023-04-20T02:03:27;5.10;99.90
9209;DHT22;4639;48.862;9.188;2023-04-20T02:05:52;5.00;99.90
9209;DHT22;4639;48.862;9.188;2023-04-20T02:08:18;5.00;99.90
9209;DHT22;4639;48.862;9.188;2023-04-20T02:10:44;5.00;99.90
9209;DHT22;4639;48.862;9.188;2023-04-20T02:13:10;4.90;99.90
9209;DHT22;4639;48.862;9.188;2023-04-20T02:15:36;4.90;99.90
9209;DHT22;4639;48.862;9.188;2023-04-20T02:18:01;4.90;99.90
9209;DHT22;4639;48.862;9.188;2023-04-20T02:20:28;4.90;99.90
9209;DHT22;4639;48.862;9.188;2023-04-20T02:22:53;4.80;99.90
9209;DHT22;4639;48.862;9.188;2023-04-20T02:25:20;4.80;99.90
9209;DHT22;4639;48.862;9.188;2023-04-20T02:27:45;4.80;99.90
9209;DHT22;4639;48.862;9.188;2023-04-20T02:30:11;4.80;99.90
9209;DHT22;4639;48.862;9.188;2023-04-20T02:32:37;4.80;99.90
9209;DHT22;4639;48.862;9.188;2023-04-20T02:35:03;4.80;99.90
9209;DHT22;4639;48.862;9.188;2023-04-20T02:37:29;4.80;99.90
9209;DHT22;4639;48.862;9.188;2023-04-20T02:39:55;4.80;99.90
9209;DHT22;4639;48.862;9.188;2023-04-20T02:42:20;4.80;99.90
9209;DHT22;4639;48.862;9.188;2023-04-20T02:44:46;4.70;99.90
9209;DHT22;4639;48.862;9.188;2023-04-20T02:47:11;4.80;99.90
9209;DHT22;4639;48.862;9.188;2023-04-20T02:49:37;4.70;99.90
9209;DHT22;4639;48.862;9.188;2023-04-20T02:52:03;4.70;99.90
9209;DHT22;4639;48.862;9.188;2023-04-20T02:54:29;4.70;99.90
9209;DHT22;4639;48.862;9.188;2023-04-20T02:56:55;4.60;99.90
9209;DHT22;4639;48.862;9.188;2023-04-20T02:59:20;4.60;99.90
9209;DHT22;4639;48.862;9.188;2023-04-20T03:01:46;4.60;99.90
9209;DHT22;4639;48.862;9.188;2023-04-20T03:04:11;4.60;99.90
9209;DHT22;4639;48.862;9.188;2023-04-20T03:06:37;4.60;99.90
9209;DHT22;4639;48.862;9.188;2023-04-20T03:09:05;4.50;99.90
9209;DHT22;4639;48.862;9.188;2023-04-20T03:11:30;4.40;99.90
9209;DHT22;4639;48.862;9.188;2023-04-20T03:13:56;4.30;99.90
9209;DHT22;4639;48.862;9.188;2023-04-20T03:16:21;4.20;99.90
9209;DHT22;4639;48.862;9.188;2023-04-20T03:18:47;4.20;99.90
9209;DHT22;4639;48.862;9.188;2023-04-20T03:21:12;4.20;99.90
9209;DHT22;4639;48.862;9.188;2023-04-20T03:23:39;4.20;99.90
9209;DHT22;4639;48.862;9.188;2023-04-20T03:26:04;4.20;99.90
9209;DHT22;4639;48.862;9.188;2023-04-20T03:28:30;4.20;99.90
9209;DHT22;4639;48.862;9.188;2023-04-20T03:30:59;4.20;99.90
9209;DHT22;4639;48.862;9.188;2023-04-20T03:33:26;4.20;99.90
9209;DHT22;4639;48.862;9.188;2023-04-20T03:35:52;4.20;99.90
9209;DHT22;4639;48.862;9.188;2023-04-20T03:38:18;4.30;99.90
9209;DHT22;4639;48.862;9.188;2023-04-20T03:40:43;4.30;99.90
9209;DHT22;4639;48.862;9.188;2023-04-20T03:43:09;4.40;99.90
9209;DHT22;4639;48.862;9.188;2023-04-20T03:45:36;4.20;99.90
9209;DHT22;4639;48.862;9.188;2023-04-20T03:48:02;4.20;99.90
9209;DHT22;4639;48.862;9.188;2023-04-20T03:50:27;4.10;99.90
9209;DHT22;4639;48.862;9.188;2023-04-20T03:52:53;4.10;99.90
9209;DHT22;4639;48.862;9.188;2023-04-20T03:55:18;4.00;99.90
9209;DHT22;4639;48.862;9.188;2023-04-20T03:57:44;4.10;99.90
9209;DHT22;4639;48.862;9.188;2023-04-20T04:00:10;4.00;99.90
9209;DHT22;4639;48.862;9.188;2023-04-20T04:02:36;3.90;99.90
9209;DHT22;4639;48.862;9.188;2023-04-20T04:05:02;3.90;99.90
9209;DHT22;4639;48.862;9.188;2023-04-20T04:07:28;3.90;99.90
9209;DHT22;4639;48.862;9.188;2023-04-20T04:09:53;3.90;99.90
9209;DHT22;4639;48.862;9.188;2023-04-20T04:12:19;3.90;99.90
9209;DHT22;4639;48.862;9.188;2023-04-20T04:14:45;3.90;99.90
9209;DHT22;4639;48.862;9.188;2023-04-20T04:17:13;3.80;99.90
9209;DHT22;4639;48.862;9.188;2023-04-20T04:19:38;3.70;99.90
9209;DHT22;4639;48.862;9.188;2023-04-20T04:22:04;3.70;99.90
9209;DHT22;4639;48.862;9.188;2023-04-20T04:24:31;3.70;99.90
9209;DHT22;4639;48.862;9.188;2023-04-20T04:26:57;3.70;99.90
9209;DHT22;4639;48.862;9.188;2023-04-20T04:29:23;3.70;99.90
9209;DHT22;4639;48.862;9.188;2023-04-20T04:31:52;3.70;99.90
9209;DHT22;4639;48.862;9.188;2023-04-20T04:34:18;3.80;99.90
9209;DHT22;4639;48.862;9.188;2023-04-20T04:36:44;3.70;99.90
9209;DHT22;4639;48.862;9.188;2023-04-20T04:39:10;3.90;99.90
9209;DHT22;4639;48.862;9.188;2023-04-20T04:41:37;3.80;99.90
9209;DHT22;4639;48.862;9.188;2023-04-20T04:44:02;3.80;99.90
9209;DHT22;4639;48.862;9.188;2023-04-20T04:46:30;3.80;99.90
9209;DHT22;4639;48.862;9.188;2023-04-20T04:48:56;3.80;99.90
9209;DHT22;4639;48.862;9.188;2023-04-20T04:51:25;3.80;99.90
9209;DHT22;4639;48.862;9.188;2023-04-20T04:53:51;3.80;99.90
9209;DHT22;4639;48.862;9.188;2023-04-20T04:56:16;3.90;99.90
9209;DHT22;4639;48.862;9.188;2023-04-20T04:58:43;3.80;99.90
9209;DHT22;4639;48.862;9.188;2023-04-20T05:01:10;3.90;99.90
9209;DHT22;4639;48.862;9.188;2023-04-20T05:03:35;3.90;99.90
9209;DHT22;4639;48.862;9.188;2023-04-20T05:06:01;3.90;99.90
9209;DHT22;4639;48.862;9.188;2023-04-20T05:08:27;3.90;99.90
9209;DHT22;4639;48.862;9.188;2023-04-20T05:10:53;3.90;99.90
9209;DHT22;4639;48.862;9.188;2023-04-20T05:13:18;4.00;99.90
9209;DHT22;4639;48.862;9.188;2023-04-20T05:15:44;4.00;99.90
9209;DHT22;4639;48.862;9.188;2023-04-20T05:18:09;4.00;99.90
9209;DHT22;4639;48.862;9.188;2023-04-20T05:20:35;4.10;99.90
9209;DHT22;4639;48.862;9.188;2023-04-20T05:23:01;4.10;99.90
9209;DHT22;4639;48.862;9.188;2023-04-20T05:25:26;4.10;99.90
9209;DHT22;4639;48.862;9.188;2023-04-20T05:27:52;4.20;99.90
9209;DHT22;4639;48.862;9.188;2023-04-20T05:30:17;4.20;99.90
9209;DHT22;4639;48.862;9.188;2023-04-20T05:32:43;4.20;99.90
9209;DHT22;4639;48.862;9.188;2023-04-20T05:35:08;4.30;99.90
9209;DHT22;4639;48.862;9.188;2023-04-20T05:37:34;4.30;99.90
9209;DHT22;4639;48.862;9.188;2023-04-20T05:39:59;4.40;99.90
9209;DHT22;4639;48.862;9.188;2023-04-20T05:42:25;4.40;99.90
9209;DHT22;4639;48.862;9.188;2023-04-20T05:44:51;4.50;99.90
9209;DHT22;4639;48.862;9.188;2023-04-20T05:47:16;4.50;99.90
9209;DHT22;4639;48.862;9.188;2023-04-20T05:49:42;4.50;99.90
9209;DHT22;4639;48.862;9.188;2023-04-20T05:52:07;4.60;99.90
9209;DHT22;4639;48.862;9.188;2023-04-20T05:54:33;4.70;99.90
9209;DHT22;4639;48.862;9.188;2023-04-20T05:56:58;4.70;99.90
9209;DHT22;4639;48.862;9.188;2023-04-20T05:59:25;4.70;99.90
9209;DHT22;4639;48.862;9.188;2023-04-20T06:01:51;4.80;99.90
9209;DHT22;4639;48.862;9.188;2023-04-20T06:04:16;4.80;99.90
9209;DHT22;4639;48.862;9.188;2023-04-20T06:06:43;4.80;99.90
9209;DHT22;4639;48.862;9.188;2023-04-20T06:09:08;4.80;99.90
9209;DHT22;4639;48.862;9.188;2023-04-20T06:11:34;5.00;99.90
9209;DHT22;4639;48.862;9.188;2023-04-20T06:14:00;5.00;99.90
9209;DHT22;4639;48.862;9.188;2023-04-20T06:16:25;5.20;99.90
9209;DHT22;4639;48.862;9.188;2023-04-20T06:18:51;5.10;99.90
9209;DHT22;4639;48.862;9.188;2023-04-20T06:21:16;5.20;99.90
9209;DHT22;4639;48.862;9.188;2023-04-20T06:23:42;5.30;99.90
9209;DHT22;4639;48.862;9.188;2023-04-20T06:26:11;5.40;99.90
9209;DHT22;4639;48.862;9.188;2023-04-20T06:28:37;5.50;99.90
9209;DHT22;4639;48.862;9.188;2023-04-20T06:31:03;5.50;99.90
9209;DHT22;4639;48.862;9.188;2023-04-20T06:33:29;5.50;99.90
9209;DHT22;4639;48.862;9.188;2023-04-20T06:35:54;5.50;99.90
9209;DHT22;4639;48.862;9.188;2023-04-20T06:38:21;5.50;99.90
9209;DHT22;4639;48.862;9.188;2023-04-20T06:40:47;5.50;99.90
9209;DHT22;4639;48.862;9.188;2023-04-20T06:43:12;5.60;99.90
9209;DHT22;4639;48.862;9.188;2023-04-20T06:45:38;5.60;99.90
9209;DHT22;4639;48.862;9.188;2023-04-20T06:48:04;5.60;99.90
9209;DHT22;4639;48.862;9.188;2023-04-20T06:50:30;5.70;99.90
9209;DHT22;4639;48.862;9.188;2023-04-20T06:52:56;5.80;99.90
9209;DHT22;4639;48.862;9.188;2023-04-20T06:55:21;5.80;99.90
9209;DHT22;4639;48.862;9.188;2023-04-20T06:57:47;5.80;99.90
9209;DHT22;4639;48.862;9.188;2023-04-20T07:00:13;6.00;99.90
9209;DHT22;4639;48.862;9.188;2023-04-20T07:05:08;6.20;99.90
9209;DHT22;4639;48.862;9.188;2023-04-20T07:07:33;6.30;99.90
9209;DHT22;4639;48.862;9.188;2023-04-20T07:09:59;6.50;99.90
9209;DHT22;4639;48.862;9.188;2023-04-20T07:12:24;6.60;99.90
9209;DHT22;4639;48.862;9.188;2023-04-20T07:14:50;6.70;99.90
9209;DHT22;4639;48.862;9.188;2023-04-20T07:17:16;6.90;99.90
9209;DHT22;4639;48.862;9.188;2023-04-20T07:19:41;7.10;99.90
9209;DHT22;4639;48.862;9.188;2023-04-20T07:22:07;7.50;99.90
9209;DHT22;4639;48.862;9.188;2023-04-20T07:24:32;7.70;99.90
9209;DHT22;4639;48.862;9.188;2023-04-20T07:26:58;8.00;99.90
9209;DHT22;4639;48.862;9.188;2023-04-20T07:29:23;8.30;99.90
9209;DHT22;4639;48.862;9.188;2023-04-20T07:31:49;8.30;99.90
9209;DHT22;4639;48.862;9.188;2023-04-20T07:34:14;8.40;99.90
9209;DHT22;4639;48.862;9.188;2023-04-20T07:36:40;8.40;99.90
9209;DHT22;4639;48.862;9.188;2023-04-20T07:39:06;8.30;99.90
9209;DHT22;4639;48.862;9.188;2023-04-20T07:41:31;8.20;99.90
9209;DHT22;4639;48.862;9.188;2023-04-20T07:43:57;8.20;99.90
9209;DHT22;4639;48.862;9.188;2023-04-20T07:46:22;8.30;99.90
9209;DHT22;4639;48.862;9.188;2023-04-20T07:48:48;8.40;99.90
9209;DHT22;4639;48.862;9.188;2023-04-20T07:51:13;8.50;99.90
9209;DHT22;4639;48.862;9.188;2023-04-20T07:53:40;8.80;99.90
9209;DHT22;4639;48.862;9.188;2023-04-20T07:56:06;9.20;99.90
9209;DHT22;4639;48.862;9.188;2023-04-20T07:58:32;9.50;99.90
9209;DHT22;4639;48.862;9.188;2023-04-20T08:00:57;9.70;99.90
9209;DHT22;4639;48.862;9.188;2023-04-20T08:03:23;10.00;99.90
9209;DHT22;4639;48.862;9.188;2023-04-20T08:05:49;10.20;99.90
9209;DHT22;4639;48.862;9.188;2023-04-20T08:08:14;10.30;99.90
9209;DHT22;4639;48.862;9.188;2023-04-20T08:10:42;10.40;99.90
9209;DHT22;4639;48.862;9.188;2023-04-20T08:13:07;10.40;99.90
9209;DHT22;4639;48.862;9.188;2023-04-20T08:15:33;10.20;99.90
9209;DHT22;4639;48.862;9.188;2023-04-20T08:17:58;9.70;99.90
9209;DHT22;4639;48.862;9.188;2023-04-20T08:20:24;9.50;99.90
9209;DHT22;4639;48.862;9.188;2023-04-20T08:22:49;9.20;99.90
9209;DHT22;4639;48.862;9.188;2023-04-20T08:25:15;8.90;99.90
9209;DHT22;4639;48.862;9.188;2023-04-20T08:27:41;8.70;99.90
9209;DHT22;4639;48.862;9.188;2023-04-20T08:30:07;8.70;99.90
9209;DHT22;4639;48.862;9.188;2023-04-20T08:32:33;8.80;99.90
9209;DHT22;4639;48.862;9.188;2023-04-20T08:34:58;8.70;99.90
9209;DHT22;4639;48.862;9.188;2023-04-20T08:37:24;8.70;99.90
9209;DHT22;4639;48.862;9.188;2023-04-20T08:39:50;8.70;99.90
9209;DHT22;4639;48.862;9.188;2023-04-20T08:42:15;8.70;99.90
9209;DHT22;4639;48.862;9.188;2023-04-20T08:44:41;8.70;99.90
9209;DHT22;4639;48.862;9.188;2023-04-20T08:47:09;8.60;99.90
9209;DHT22;4639;48.862;9.188;2023-04-20T08:49:37;8.40;99.90
9209;DHT22;4639;48.862;9.188;2023-04-20T08:52:09;8.20;99.90
9209;DHT22;4639;48.862;9.188;2023-04-20T08:54:36;8.10;99.90
9209;DHT22;4639;48.862;9.188;2023-04-20T08:57:03;8.00;99.90
9209;DHT22;4639;48.862;9.188;2023-04-20T08:59:30;8.00;99.90
9209;DHT22;4639;48.862;9.188;2023-04-20T09:01:55;8.00;99.90
9209;DHT22;4639;48.862;9.188;2023-04-20T09:04:25;8.10;99.90
9209;DHT22;4639;48.862;9.188;2023-04-20T09:06:53;8.10;99.90
9209;DHT22;4639;48.862;9.188;2023-04-20T09:09:21;7.90;99.90
9209;DHT22;4639;48.862;9.188;2023-04-20T09:11:58;7.80;99.90
9209;DHT22;4639;48.862;9.188;2023-04-20T09:14:24;7.80;99.90
9209;DHT22;4639;48.862;9.188;2023-04-20T09:16:55;7.80;99.90
9209;DHT22;4639;48.862;9.188;2023-04-20T09:19:30;7.90;99.90
9209;DHT22;4639;48.862;9.188;2023-04-20T09:21:57;8.20;99.90
9209;DHT22;4639;48.862;9.188;2023-04-20T09:24:31;8.00;99.90
9209;DHT22;4639;48.862;9.188;2023-04-20T09:26:57;7.90;99.90
9209;DHT22;4639;48.862;9.188;2023-04-20T09:29:23;7.90;99.90
9209;DHT22;4639;48.862;9.188;2023-04-20T09:31:50;8.00;99.90
9209;DHT22;4639;48.862;9.188;2023-04-20T09:34:16;8.10;99.90
9209;DHT22;4639;48.862;9.188;2023-04-20T09:36:47;8.20;99.90
9209;DHT22;4639;48.862;9.188;2023-04-20T09:39:19;8.30;99.90
9209;DHT22;4639;48.862;9.188;2023-04-20T09:41:45;8.40;99.90
9209;DHT22;4639;48.862;9.188;2023-04-20T09:44:11;8.70;99.90
9209;DHT22;4639;48.862;9.188;2023-04-20T09:46:39;8.50;99.90
9209;DHT22;4639;48.862;9.188;2023-04-20T09:49:08;8.50;99.90
9209;DHT22;4639;48.862;9.188;2023-04-20T09:51:38;8.50;99.90
9209;DHT22;4639;48.862;9.188;2023-04-20T09:54:06;8.70;99.90
9209;DHT22;4639;48.862;9.188;2023-04-20T09:56:33;8.80;99.90
9209;DHT22;4639;48.862;9.188;2023-04-20T09:59:00;8.80;99.90
9209;DHT22;4639;48.862;9.188;2023-04-20T10:01:29;8.80;99.90
9209;DHT22;4639;48.862;9.188;2023-04-20T10:03:58;8.80;99.90
9209;DHT22;4639;48.862;9.188;2023-04-20T10:06:35;8.80;99.90
9209;DHT22;4639;48.862;9.188;2023-04-20T10:09:03;8.90;99.90
9209;DHT22;4639;48.862;9.188;2023-04-20T10:14:13;8.90;99.90
9209;DHT22;4639;48.862;9.188;2023-04-20T10:16:38;8.90;99.90
9209;DHT22;4639;48.862;9.188;2023-04-20T10:19:04;8.90;99.90
9209;DHT22;4639;48.862;9.188;2023-04-20T10:21:30;9.00;99.90
9209;DHT22;4639;48.862;9.188;2023-04-20T10:23:59;9.00;99.90
9209;DHT22;4639;48.862;9.188;2023-04-20T10:26:39;9.10;99.90
9209;DHT22;4639;48.862;9.188;2023-04-20T10:29:05;9.00;99.90
9209;DHT22;4639;48.862;9.188;2023-04-20T10:31:38;9.00;99.90
9209;DHT22;4639;48.862;9.188;2023-04-20T10:34:05;9.10;99.90
9209;DHT22;4639;48.862;9.188;2023-04-20T10:36:36;9.10;99.90
9209;DHT22;4639;48.862;9.188;2023-04-20T10:39:16;9.10;99.90
9209;DHT22;4639;48.862;9.188;2023-04-20T10:41:57;9.20;99.90
9209;DHT22;4639;48.862;9.188;2023-04-20T10:44:26;9.20;99.90
9209;DHT22;4639;48.862;9.188;2023-04-20T10:46:53;9.20;99.90
9209;DHT22;4639;48.862;9.188;2023-04-20T10:49:24;9.10;99.90
9209;DHT22;4639;48.862;9.188;2023-04-20T10:51:50;9.00;99.90
9209;DHT22;4639;48.862;9.188;2023-04-20T10:54:16;8.90;99.90
9209;DHT22;4639;48.862;9.188;2023-04-20T10:56:48;8.90;99.90
9209;DHT22;4639;48.862;9.188;2023-04-20T10:59:15;8.90;99.90
9209;DHT22;4639;48.862;9.188;2023-04-20T11:01:41;8.90;99.90
9209;DHT22;4639;48.862;9.188;2023-04-20T11:04:09;8.90;99.90
9209;DHT22;4639;48.862;9.188;2023-04-20T11:06:35;8.90;99.90
9209;DHT22;4639;48.862;9.188;2023-04-20T11:09:03;8.90;99.90
9209;DHT22;4639;48.862;9.188;2023-04-20T11:11:29;8.90;99.90
9209;DHT22;4639;48.862;9.188;2023-04-20T11:14:05;8.90;99.90
9209;DHT22;4639;48.862;9.188;2023-04-20T11:16:32;8.80;99.90
9209;DHT22;4639;48.862;9.188;2023-04-20T11:18:58;8.90;99.90
9209;DHT22;4639;48.862;9.188;2023-04-20T11:21:35;8.80;99.90
9209;DHT22;4639;48.862;9.188;2023-04-20T11:24:01;8.90;99.90
9209;DHT22;4639;48.862;9.188;2023-04-20T11:26:36;8.80;99.90
9209;DHT22;4639;48.862;9.188;2023-04-20T11:29:02;8.80;99.90
9209;DHT22;4639;48.862;9.188;2023-04-20T11:31:28;8.90;99.90
9209;DHT22;4639;48.862;9.188;2023-04-20T11:33:54;8.90;99.90
9209;DHT22;4639;48.862;9.188;2023-04-20T11:36:21;9.00;99.90
9209;DHT22;4639;48.862;9.188;2023-04-20T11:38:48;9.00;99.90
9209;DHT22;4639;48.862;9.188;2023-04-20T11:41:15;9.10;99.90
9209;DHT22;4639;48.862;9.188;2023-04-20T11:43:40;9.20;99.90
9209;DHT22;4639;48.862;9.188;2023-04-20T11:46:18;9.20;99.90
9209;DHT22;4639;48.862;9.188;2023-04-20T11:48:45;9.20;99.90
9209;DHT22;4639;48.862;9.188;2023-04-20T11:51:12;9.20;99.90
9209;DHT22;4639;48.862;9.188;2023-04-20T11:53:38;9.30;99.90
9209;DHT22;4639;48.862;9.188;2023-04-20T11:56:03;9.30;99.90
9209;DHT22;4639;48.862;9.188;2023-04-20T11:58:29;9.20;99.90
9209;DHT22;4639;48.862;9.188;2023-04-20T12:00:55;9.10;99.90
9209;DHT22;4639;48.862;9.188;2023-04-20T12:03:21;9.10;99.90
9209;DHT22;4639;48.862;9.188;2023-04-20T12:05:47;8.90;99.90
9209;DHT22;4639;48.862;9.188;2023-04-20T12:08:12;8.70;99.90
9209;DHT22;4639;48.862;9.188;2023-04-20T12:10:38;8.80;99.90
9209;DHT22;4639;48.862;9.188;2023-04-20T12:13:04;8.80;99.90
9209;DHT22;4639;48.862;9.188;2023-04-20T12:15:30;8.90;99.90
9209;DHT22;4639;48.862;9.188;2023-04-20T12:17:56;9.00;99.90
9209;DHT22;4639;48.862;9.188;2023-04-20T12:20:22;9.00;99.90
9209;DHT22;4639;48.862;9.188;2023-04-20T12:22:48;9.00;99.90
9209;DHT22;4639;48.862;9.188;2023-04-20T12:25:13;9.10;99.90
9209;DHT22;4639;48.862;9.188;2023-04-20T12:27:39;9.10;99.90
9209;DHT22;4639;48.862;9.188;2023-04-20T12:30:06;9.20;99.90
9209;DHT22;4639;48.862;9.188;2023-04-20T12:32:33;9.20;99.90
9209;DHT22;4639;48.862;9.188;2023-04-20T12:34:59;9.20;99.90
9209;DHT22;4639;48.862;9.188;2023-04-20T12:37:25;9.20;99.90
9209;DHT22;4639;48.862;9.188;2023-04-20T12:39:51;9.20;99.90
9209;DHT22;4639;48.862;9.188;2023-04-20T12:42:17;9.30;99.90
9209;DHT22;4639;48.862;9.188;2023-04-20T12:44:42;9.40;99.90
9209;DHT22;4639;48.862;9.188;2023-04-20T12:47:08;9.30;99.90
9209;DHT22;4639;48.862;9.188;2023-04-20T12:49:34;9.30;99.90
9209;DHT22;4639;48.862;9.188;2023-04-20T12:51:59;9.20;99.90
9209;DHT22;4639;48.862;9.188;2023-04-20T12:54:25;9.20;99.90
9209;DHT22;4639;48.862;9.188;2023-04-20T12:56:50;9.40;99.90
9209;DHT22;4639;48.862;9.188;2023-04-20T12:59:16;9.40;99.90
9209;DHT22;4639;48.862;9.188;2023-04-20T13:01:42;9.40;99.90
9209;DHT22;4639;48.862;9.188;2023-04-20T13:04:07;9.50;99.90
9209;DHT22;4639;48.862;9.188;2023-04-20T13:06:33;9.60;99.90
9209;DHT22;4639;48.862;9.188;2023-04-20T13:08:59;9.60;99.90
9209;DHT22;4639;48.862;9.188;2023-04-20T13:11:25;9.60;99.90
9209;DHT22;4639;48.862;9.188;2023-04-20T13:13:51;9.60;99.90
9209;DHT22;4639;48.862;9.188;2023-04-20T13:16:16;9.60;99.90
9209;DHT22;4639;48.862;9.188;2023-04-20T13:18:42;9.70;99.90
9209;DHT22;4639;48.862;9.188;2023-04-20T13:21:07;9.70;99.90
9209;DHT22;4639;48.862;9.188;2023-04-20T13:23:33;9.70;99.90
9209;DHT22;4639;48.862;9.188;2023-04-20T13:25:59;9.70;99.90
9209;DHT22;4639;48.862;9.188;2023-04-20T13:28:26;9.80;99.90
9209;DHT22;4639;48.862;9.188;2023-04-20T13:30:52;9.50;99.90
9209;DHT22;4639;48.862;9.188;2023-04-20T13:33:19;9.50;99.90
9209;DHT22;4639;48.862;9.188;2023-04-20T13:35:45;9.50;99.90
9209;DHT22;4639;48.862;9.188;2023-04-20T13:38:10;9.50;99.90
9209;DHT22;4639;48.862;9.188;2023-04-20T13:40:36;9.50;99.90
9209;DHT22;4639;48.862;9.188;2023-04-20T13:43:02;9.50;99.90
9209;DHT22;4639;48.862;9.188;2023-04-20T13:45:27;9.60;99.90
9209;DHT22;4639;48.862;9.188;2023-04-20T13:47:54;9.50;99.90
9209;DHT22;4639;48.862;9.188;2023-04-20T13:50:19;9.50;99.90
9209;DHT22;4639;48.862;9.188;2023-04-20T13:52:45;9.40;99.90
9209;DHT22;4639;48.862;9.188;2023-04-20T13:55:11;9.40;99.90
9209;DHT22;4639;48.862;9.188;2023-04-20T13:57:36;9.40;99.90
9209;DHT22;4639;48.862;9.188;2023-04-20T14:00:03;9.40;99.90
9209;DHT22;4639;48.862;9.188;2023-04-20T14:02:29;9.40;99.90
9209;DHT22;4639;48.862;9.188;2023-04-20T14:04:55;9.30;99.90
9209;DHT22;4639;48.862;9.188;2023-04-20T14:07:21;9.30;99.90
9209;DHT22;4639;48.862;9.188;2023-04-20T14:09:46;9.30;99.90
9209;DHT22;4639;48.862;9.188;2023-04-20T14:12:12;9.30;99.90
9209;DHT22;4639;48.862;9.188;2023-04-20T14:14:39;9.30;99.90
9209;DHT22;4639;48.862;9.188;2023-04-20T14:17:04;9.20;99.90
9209;DHT22;4639;48.862;9.188;2023-04-20T14:19:30;9.20;99.90
9209;DHT22;4639;48.862;9.188;2023-04-20T14:21:57;9.20;99.90
9209;DHT22;4639;48.862;9.188;2023-04-20T14:24:22;9.20;99.90
9209;DHT22;4639;48.862;9.188;2023-04-20T14:26:50;9.20;99.90
9209;DHT22;4639;48.862;9.188;2023-04-20T14:29:16;9.20;99.90
9209;DHT22;4639;48.862;9.188;2023-04-20T14:31:41;9.30;99.90
9209;DHT22;4639;48.862;9.188;2023-04-20T14:34:07;9.30;99.90
9209;DHT22;4639;48.862;9.188;2023-04-20T14:36:33;9.20;99.90
9209;DHT22;4639;48.862;9.188;2023-04-20T14:38:59;9.40;99.90
9209;DHT22;4639;48.862;9.188;2023-04-20T14:41:25;9.20;99.90
9209;DHT22;4639;48.862;9.188;2023-04-20T14:43:50;9.10;99.90
9209;DHT22;4639;48.862;9.188;2023-04-20T14:46:17;9.10;99.90
9209;DHT22;4639;48.862;9.188;2023-04-20T14:48:43;9.10;99.90
9209;DHT22;4639;48.862;9.188;2023-04-20T14:51:10;9.00;99.90
9209;DHT22;4639;48.862;9.188;2023-04-20T14:53:36;9.00;99.90
9209;DHT22;4639;48.862;9.188;2023-04-20T14:56:02;9.00;99.90
9209;DHT22;4639;48.862;9.188;2023-04-20T14:58:27;8.90;99.90
9209;DHT22;4639;48.862;9.188;2023-04-20T15:00:53;8.90;99.90
9209;DHT22;4639;48.862;9.188;2023-04-20T15:03:19;9.00;99.90
9209;DHT22;4639;48.862;9.188;2023-04-20T15:05:45;8.90;99.90
9209;DHT22;4639;48.862;9.188;2023-04-20T15:08:11;8.90;99.90
9209;DHT22;4639;48.862;9.188;2023-04-20T15:10:37;8.90;99.90
9209;DHT22;4639;48.862;9.188;2023-04-20T15:13:02;8.90;99.90
9209;DHT22;4639;48.862;9.188;2023-04-20T15:15:28;8.80;99.90
9209;DHT22;4639;48.862;9.188;2023-04-20T15:17:54;8.80;99.90
9209;DHT22;4639;48.862;9.188;2023-04-20T15:20:21;8.90;99.90
9209;DHT22;4639;48.862;9.188;2023-04-20T15:22:47;8.90;99.90
9209;DHT22;4639;48.862;9.188;2023-04-20T15:25:12;8.90;99.90
9209;DHT22;4639;48.862;9.188;2023-04-20T15:27:38;8.90;99.90
9209;DHT22;4639;48.862;9.188;2023-04-20T15:30:05;9.00;99.90
9209;DHT22;4639;48.862;9.188;2023-04-20T15:32:31;8.90;99.90
9209;DHT22;4639;48.862;9.188;2023-04-20T15:35:00;9.00;99.90
9209;DHT22;4639;48.862;9.188;2023-04-20T15:37:26;8.70;99.90
9209;DHT22;4639;48.862;9.188;2023-04-20T15:39:51;8.70;99.90
9209;DHT22;4639;48.862;9.188;2023-04-20T15:42:17;8.80;99.90
9209;DHT22;4639;48.862;9.188;2023-04-20T15:44:46;9.00;99.90
9209;DHT22;4639;48.862;9.188;2023-04-20T15:47:12;8.80;99.90
9209;DHT22;4639;48.862;9.188;2023-04-20T15:49:37;8.80;99.90
9209;DHT22;4639;48.862;9.188;2023-04-20T15:52:05;8.80;99.90
9209;DHT22;4639;48.862;9.188;2023-04-20T15:54:32;8.70;99.90
9209;DHT22;4639;48.862;9.188;2023-04-20T15:56:57;8.70;99.90
9209;DHT22;4639;48.862;9.188;2023-04-20T15:59:23;8.60;99.90
9209;DHT22;4639;48.862;9.188;2023-04-20T16:01:49;8.60;99.90
9209;DHT22;4639;48.862;9.188;2023-04-20T16:04:14;8.70;99.90
9209;DHT22;4639;48.862;9.188;2023-04-20T16:06:40;8.80;99.90
9209;DHT22;4639;48.862;9.188;2023-04-20T16:09:06;8.90;99.90
9209;DHT22;4639;48.862;9.188;2023-04-20T16:11:32;8.90;99.90
9209;DHT22;4639;48.862;9.188;2023-04-20T16:13:58;9.20;99.90
9209;DHT22;4639;48.862;9.188;2023-04-20T16:16:24;9.00;99.90